Unicorn — SFC6460 — position and weather

sailwx.info

Track history (hours):
 
Tides and Currents Weather Stations Pressure Air Temp Water Temp Dewpoint Dewpoint Depression Visibility Wind Speed Wind Dir Waves Ship Positions

Unicorn

Last reported at 2018-Apr-26 23:14 UTC. Time now 2018-Jun-17 23:55 UTC.
Position N 10°41' W 061°38'.
Warning: this ship's position is 52 days out of date.

Length 12 m.

Type: Sailing vessel. MMSI: 265514270.

Date/timePositionNaut miles runAvg speedWind from/ knotsBaromVisibWave heightAir tempDewpointWater temp
2018-Apr-26 23:14N 10°41' W 061°38'0 0.0
2018-Apr-26 22:59N 10°41' W 061°38'1 1.7
2018-Apr-26 22:30N 10°41' W 061°39'1 0.2
2018-Apr-26 16:43N 10°41' W 061°40'1 5.0
2018-Apr-26 16:30N 10°41' W 061°39'1 2.3
2018-Apr-26 16:00N 10°41' W 061°38'0 0.8
2018-Apr-26 15:29N 10°41' W 061°38'0 0.0
2018-Apr-26 14:56N 10°41' W 061°38'0 0.4
2018-Apr-26 14:26N 10°41' W 061°38'0 0.8
2018-Apr-26 14:00N 10°41' W 061°38'2 3.4
2018-Apr-26 13:29N 10°41' W 061°40'10 5.3
2018-Apr-26 11:38N 10°51' W 061°39'1 6.2
2018-Apr-26 11:29N 10°52' W 061°38'  
2018-Apr-23 15:43N 14°21' W 060°55'2 6.3
2018-Apr-23 15:28N 14°22' W 060°55'3 5.8
2018-Apr-23 14:59N 14°25' W 060°54'2 1.0
2018-Apr-23 13:23N 14°26' W 060°53'0 0.0
2018-Apr-22 15:15N 14°26' W 060°53'  
Track history (hours):
 
Tides and Currents Weather Stations Pressure Air Temp Water Temp Dewpoint Dewpoint Depression Visibility Wind Speed Wind Dir Waves Ship Positions

Unicorn

Last reported at 2018-Apr-26 23:14 UTC. Time now 2018-Jun-17 23:55 UTC.
Position N 10°41' W 061°38'.
Warning: this ship's position is 52 days out of date.

Length 12 m.

Type: Sailing vessel. MMSI: 265514270.

Date/timePositionNaut miles runAvg speedWind from/ knotsBaromVisibWave heightAir tempDewpointWater temp
2018-Apr-26 23:14N 10°41' W 061°38'0 0.0
2018-Apr-26 22:59N 10°41' W 061°38'1 1.7
2018-Apr-26 22:30N 10°41' W 061°39'1 0.2
2018-Apr-26 16:43N 10°41' W 061°40'1 5.0
2018-Apr-26 16:30N 10°41' W 061°39'1 2.3
2018-Apr-26 16:00N 10°41' W 061°38'0 0.8
2018-Apr-26 15:29N 10°41' W 061°38'0 0.0
2018-Apr-26 14:56N 10°41' W 061°38'0 0.4
2018-Apr-26 14:26N 10°41' W 061°38'0 0.8
2018-Apr-26 14:00N 10°41' W 061°38'2 3.4
2018-Apr-26 13:29N 10°41' W 061°40'10 5.3
2018-Apr-26 11:38N 10°51' W 061°39'1 6.2
2018-Apr-26 11:29N 10°52' W 061°38'  
2018-Apr-23 15:43N 14°21' W 060°55'2 6.3
2018-Apr-23 15:28N 14°22' W 060°55'3 5.8
2018-Apr-23 14:59N 14°25' W 060°54'2 1.0
2018-Apr-23 13:23N 14°26' W 060°53'0 0.0
2018-Apr-22 15:15N 14°26' W 060°53'  

Dump ship's entire track history